createdAt,value
2022-11-12T00:02:20.857Z,102473.63
2022-11-12T00:04:52.176Z,102470.97
2022-11-12T00:07:23.411Z,102466.47
2022-11-12T00:09:54.661Z,102468.16
2022-11-12T00:12:25.894Z,102468.06
2022-11-12T00:14:57.092Z,102467.06
2022-11-12T00:17:28.370Z,102461.69
2022-11-12T00:19:59.750Z,102463.31
2022-11-12T00:22:30.960Z,102472.03
2022-11-12T00:25:02.469Z,102469.28
2022-11-12T00:27:34.051Z,102469.25
2022-11-12T00:30:05.801Z,102470.03
2022-11-12T00:32:37.599Z,102474.31
2022-11-12T00:35:13.373Z,102469.91
2022-11-12T00:37:45.306Z,102469.78
2022-11-12T00:40:16.516Z,102478.50
2022-11-12T00:42:47.761Z,102478.50
2022-11-12T00:45:19.798Z,102473.25
2022-11-12T00:47:54.252Z,102472.28
2022-11-12T00:50:25.609Z,102476.66
2022-11-12T00:52:56.887Z,102476.53
2022-11-12T00:55:28.100Z,102466.75
2022-11-12T00:57:59.435Z,102473.69
2022-11-12T01:00:30.726Z,102473.56
2022-11-12T01:03:01.931Z,102466.53
2022-11-12T01:05:33.774Z,102476.13
2022-11-12T01:08:04.985Z,102471.78
2022-11-12T01:10:36.486Z,102470.69
2022-11-12T01:13:07.836Z,102475.06
2022-11-12T01:15:40.492Z,102475.00
2022-11-12T01:18:11.721Z,102475.00
2022-11-12T01:20:42.899Z,102472.38
2022-11-12T01:23:14.136Z,102477.50
2022-11-12T01:25:45.424Z,102480.91
2022-11-12T01:28:16.704Z,102469.53
2022-11-12T01:30:47.923Z,102471.19
2022-11-12T01:33:19.132Z,102470.28
2022-11-12T01:35:50.314Z,102471.06
2022-11-12T01:38:21.550Z,102472.75
2022-11-12T01:40:52.791Z,102476.22
2022-11-12T01:43:24.077Z,102477.03
2022-11-12T01:45:55.843Z,102476.94
2022-11-12T01:48:29.705Z,102468.94
2022-11-12T01:51:03.541Z,102469.72
2022-11-12T01:53:37.311Z,102467.84
2022-11-12T01:56:08.991Z,102475.66
2022-11-12T01:58:40.759Z,102470.38
2022-11-12T02:01:12.070Z,102459.81
2022-11-12T02:03:43.298Z,102458.91
2022-11-12T02:06:15.612Z,102472.81
2022-11-12T02:08:47.176Z,102471.06
2022-11-12T02:11:19.721Z,102464.88
2022-11-12T02:13:58.157Z,102469.22
2022-11-12T02:16:34.499Z,102473.59
2022-11-12T02:19:07.195Z,102477.03
2022-11-12T02:21:38.812Z,102470.91
2022-11-12T02:24:12.757Z,102468.22
2022-11-12T02:26:45.835Z,102473.41
2022-11-12T02:29:17.146Z,102472.50
2022-11-12T02:31:48.348Z,102476.81
2022-11-12T02:34:19.565Z,102475.00
2022-11-12T02:36:50.860Z,102475.78
2022-11-12T02:39:22.281Z,102475.66
2022-11-12T02:41:53.479Z,102476.50
2022-11-12T02:44:25.061Z,102479.88
2022-11-12T02:46:56.300Z,102486.88
2022-11-12T02:49:27.526Z,102475.41
2022-11-12T02:51:58.813Z,102468.31
2022-11-12T02:54:29.994Z,102484.94
2022-11-12T02:57:01.236Z,102488.47
2022-11-12T02:59:32.430Z,102483.22
2022-11-12T03:02:03.796Z,102477.97
2022-11-12T03:04:35.030Z,102481.44
2022-11-12T03:07:06.458Z,102476.19
2022-11-12T03:09:37.671Z,102463.91
2022-11-12T03:12:09.202Z,102475.22
2022-11-12T03:14:40.732Z,102482.25
2022-11-12T03:17:11.924Z,102482.34
2022-11-12T03:19:43.133Z,102472.66
2022-11-12T03:22:14.509Z,102481.31
2022-11-12T03:24:45.730Z,102479.59
2022-11-12T03:27:16.974Z,102479.66
2022-11-12T03:29:48.245Z,102481.44
2022-11-12T03:32:19.454Z,102501.53
2022-11-12T03:34:55.288Z,102487.44
2022-11-12T03:37:26.927Z,102476.06
2022-11-12T03:39:58.121Z,102486.31
2022-11-12T03:42:29.340Z,102491.44
2022-11-12T03:45:00.527Z,102491.31
2022-11-12T03:47:31.754Z,102492.94
2022-11-12T03:50:03.144Z,102487.63
2022-11-12T03:52:34.376Z,102487.50
2022-11-12T03:55:06.265Z,102496.19
2022-11-12T03:57:37.483Z,102504.06
2022-11-12T04:00:10.320Z,102496.19
2022-11-12T04:02:41.532Z,102500.50
2022-11-12T04:05:31.621Z,102489.94
2022-11-12T04:08:23.672Z,102488.97
2022-11-12T04:10:55.152Z,102495.94
2022-11-12T04:13:29.557Z,102494.22
2022-11-12T04:16:20.714Z,102491.59
2022-11-12T04:19:13.024Z,102497.88
2022-11-12T04:21:51.612Z,102491.84
2022-11-12T04:24:51.580Z,102476.19
2022-11-12T04:27:42.438Z,102467.81
2022-11-12T04:30:16.698Z,102488.94
2022-11-12T04:32:54.396Z,102491.69
2022-11-12T04:35:26.405Z,102486.56
2022-11-12T04:37:57.683Z,102480.41
2022-11-12T04:40:47.888Z,102485.66
2022-11-12T04:43:38.039Z,102480.41
2022-11-12T04:46:09.518Z,102471.59
2022-11-12T04:48:40.819Z,102476.72
2022-11-12T04:51:30.860Z,102479.28
2022-11-12T04:54:02.071Z,102484.38
2022-11-12T04:56:33.258Z,102474.59
2022-11-12T04:59:04.559Z,102479.03
2022-11-12T05:01:35.882Z,102469.38
2022-11-12T05:04:07.189Z,102471.97
2022-11-12T05:06:53.852Z,102477.19
2022-11-12T05:09:27.067Z,102471.06
2022-11-12T05:11:58.431Z,102459.56
2022-11-12T05:14:29.644Z,102461.16
2022-11-12T05:17:01.261Z,102466.28
2022-11-12T05:19:33.593Z,102435.06
2022-11-12T05:22:17.478Z,102450.28
2022-11-12T05:24:53.410Z,102472.03
2022-11-12T05:27:24.701Z,102470.16
2022-11-12T05:29:55.927Z,102474.41
2022-11-12T05:32:27.272Z,102472.53
2022-11-12T05:34:58.500Z,102454.50
2022-11-12T05:37:29.981Z,102478.47
2022-11-12T05:40:01.208Z,102473.19
2022-11-12T05:42:32.462Z,102471.38
2022-11-12T05:45:04.244Z,102479.19
2022-11-12T05:47:35.446Z,102465.13
2022-11-12T05:50:06.985Z,102465.81
2022-11-12T05:52:38.187Z,102465.69
2022-11-12T05:55:09.517Z,102467.28
2022-11-12T05:57:40.714Z,102473.28
2022-11-12T06:00:12.732Z,102480.19
2022-11-12T06:02:43.959Z,102473.09
2022-11-12T06:05:15.213Z,102474.69
2022-11-12T06:07:46.420Z,102495.56
2022-11-12T06:10:20.432Z,102482.34
2022-11-12T06:12:52.148Z,102479.66
2022-11-12T06:15:26.832Z,102496.97
2022-11-12T06:17:58.032Z,102508.28
2022-11-12T06:20:29.236Z,102505.66
2022-11-12T06:23:00.495Z,102508.19
2022-11-12T06:25:31.710Z,102510.81
2022-11-12T06:28:02.985Z,102509.94
2022-11-12T06:30:34.200Z,102530.81
2022-11-12T06:33:05.515Z,102538.69
2022-11-12T06:35:42.628Z,102525.56
2022-11-12T06:38:14.254Z,102512.41
2022-11-12T06:40:45.535Z,102526.41
2022-11-12T06:43:17.030Z,102543.91
2022-11-12T06:45:48.245Z,102538.75
2022-11-12T06:48:19.538Z,102537.84
2022-11-12T06:50:50.748Z,102535.22
2022-11-12T06:53:22.026Z,102526.53
2022-11-12T06:55:53.255Z,102536.13
2022-11-12T06:58:24.756Z,102537.91
2022-11-12T07:00:56.341Z,102537.09
2022-11-12T07:03:27.575Z,102534.47
2022-11-12T07:06:02.887Z,102535.38
2022-11-12T07:08:34.128Z,102530.13
2022-11-12T07:11:05.922Z,102517.91
2022-11-12T07:13:37.136Z,102526.69
2022-11-12T07:16:08.451Z,102540.69
2022-11-12T07:18:39.824Z,102546.81
2022-11-12T07:21:12.714Z,102544.19
2022-11-12T07:23:44.592Z,102538.19
2022-11-12T07:26:20.384Z,102530.41
2022-11-12T07:28:52.252Z,102533.91
2022-11-12T07:31:23.586Z,102537.44
2022-11-12T07:33:54.985Z,102541.84
2022-11-12T07:36:26.576Z,102545.44
2022-11-12T07:38:57.821Z,102539.34
2022-11-12T07:41:29.138Z,102532.47
2022-11-12T07:44:00.324Z,102537.84
2022-11-12T07:46:31.523Z,102537.84
2022-11-12T07:49:02.833Z,102538.03
2022-11-12T07:51:34.072Z,102553.84
2022-11-12T07:54:05.449Z,102553.97
2022-11-12T07:56:36.658Z,102547.06
2022-11-12T07:59:07.885Z,102545.47
2022-11-12T08:01:40.356Z,102549.13
2022-11-12T08:04:14.307Z,102554.50
2022-11-12T08:06:45.612Z,102550.22
2022-11-12T08:09:17.003Z,102555.66
2022-11-12T08:11:48.209Z,102548.75
2022-11-12T08:14:19.560Z,102549.78
2022-11-12T08:16:50.784Z,102540.28
2022-11-12T08:19:22.037Z,102543.03
2022-11-12T08:21:53.241Z,102546.66
2022-11-12T08:24:24.516Z,102546.88
2022-11-12T08:26:55.715Z,102542.72
2022-11-12T08:29:26.902Z,102549.97
2022-11-12T08:31:58.108Z,102549.41
2022-11-12T08:34:29.316Z,102571.59
2022-11-12T08:37:01.003Z,102580.75
2022-11-12T08:39:32.323Z,102575.94
2022-11-12T08:42:03.688Z,102570.25
2022-11-12T08:44:34.879Z,102556.66
2022-11-12T08:47:06.173Z,102560.59
2022-11-12T08:49:37.381Z,102571.47
2022-11-12T08:52:08.581Z,102585.00
2022-11-12T08:54:39.806Z,102587.94
2022-11-12T08:57:11.020Z,102584.78
2022-11-12T08:59:42.213Z,102579.09
2022-11-12T09:02:13.837Z,102582.97
2022-11-12T09:04:45.090Z,102592.09
2022-11-12T09:07:43.439Z,102587.25
2022-11-12T09:10:07.827Z,102581.59
2022-11-12T09:12:39.039Z,102581.91
2022-11-12T09:15:36.149Z,102575.31
2022-11-12T09:18:05.611Z,102585.56
2022-11-12T09:20:36.891Z,102587.84
2022-11-12T09:23:12.089Z,102581.31
2022-11-12T09:25:43.617Z,102579.19
2022-11-12T09:28:16.412Z,102570.00
2022-11-12T09:30:49.269Z,102576.72
2022-11-12T09:33:21.962Z,102578.94
2022-11-12T09:35:53.542Z,102579.47
2022-11-12T09:38:25.208Z,102571.13
2022-11-12T09:41:05.578Z,102568.94
2022-11-12T09:43:45.508Z,102572.03
2022-11-12T09:46:37.676Z,102569.06
2022-11-12T09:49:28.943Z,102576.63
2022-11-12T09:52:03.319Z,102591.16
2022-11-12T09:54:35.304Z,102595.94
2022-11-12T09:57:09.716Z,102598.03
2022-11-12T09:59:41.797Z,102597.50
2022-11-12T10:02:23.343Z,102595.19
2022-11-12T10:04:57.645Z,102595.50
2022-11-12T10:07:47.591Z,102601.16
2022-11-12T10:10:24.342Z,102595.31
2022-11-12T10:13:08.795Z,102594.72
2022-11-12T10:16:11.162Z,102593.22
2022-11-12T10:19:00.556Z,102584.72
2022-11-12T10:21:55.056Z,102584.13
2022-11-12T10:24:30.067Z,102585.31
2022-11-12T10:27:02.578Z,102585.56
2022-11-12T10:29:43.061Z,102587.59
2022-11-12T10:32:15.571Z,102592.25
2022-11-12T10:34:47.009Z,102594.25
2022-11-12T10:37:25.355Z,102592.69
2022-11-12T10:39:56.545Z,102588.47
2022-11-12T10:42:27.796Z,102584.22
2022-11-12T10:45:15.547Z,102591.44
2022-11-12T10:47:46.786Z,102593.34
2022-11-12T10:50:21.019Z,102602.38
2022-11-12T10:52:58.331Z,102588.34
2022-11-12T10:55:33.409Z,102589.34
2022-11-12T10:58:05.093Z,102584.97
2022-11-12T11:00:37.052Z,102583.31
2022-11-12T11:03:31.388Z,102593.16
2022-11-12T11:06:15.076Z,102596.81
2022-11-12T11:08:47.669Z,102595.16
2022-11-12T11:11:23.843Z,102592.63
2022-11-12T11:13:56.500Z,102593.59
2022-11-12T11:16:29.005Z,102591.00
2022-11-12T11:19:03.895Z,102584.84
2022-11-12T11:21:47.771Z,102590.28
2022-11-12T11:24:31.054Z,102584.16
2022-11-12T11:27:04.621Z,102580.72
2022-11-12T11:29:41.747Z,102574.53
2022-11-12T11:32:37.426Z,102579.06
2022-11-12T11:35:21.064Z,102582.69
2022-11-12T11:37:58.413Z,102581.88
2022-11-12T11:40:33.896Z,102575.75
2022-11-12T11:43:15.427Z,102572.22
2022-11-12T11:45:55.859Z,102575.81
2022-11-12T11:48:45.833Z,102568.75
2022-11-12T11:51:29.162Z,102578.59
2022-11-12T11:54:09.575Z,102576.88
2022-11-12T11:56:42.714Z,102567.19
2022-11-12T11:59:20.114Z,102575.22
2022-11-12T12:01:51.289Z,102570.81
2022-11-12T12:04:25.335Z,102573.47
2022-11-12T12:07:12.031Z,102574.38
2022-11-12T12:10:07.794Z,102577.94
2022-11-12T12:13:03.490Z,102574.41
2022-11-12T12:15:40.974Z,102571.78
2022-11-12T12:18:15.101Z,102573.56
2022-11-12T12:21:03.087Z,102578.03
2022-11-12T12:23:53.003Z,102583.38
2022-11-12T12:26:30.616Z,102570.09
2022-11-12T12:29:10.591Z,102558.53
2022-11-12T12:31:47.105Z,102568.34
2022-11-12T12:34:25.244Z,102570.13
2022-11-12T12:37:06.495Z,102567.47
2022-11-12T12:39:50.271Z,102558.59
2022-11-12T12:42:26.284Z,102547.94
2022-11-12T12:45:05.558Z,102539.03
2022-11-12T12:47:39.164Z,102544.38
2022-11-12T12:50:12.455Z,102539.00
2022-11-12T12:53:00.522Z,102530.09
2022-11-12T12:55:43.814Z,102531.00
2022-11-12T12:58:21.999Z,102538.09
2022-11-12T13:00:57.122Z,102487.44
2022-11-12T13:03:49.986Z,102523.84
2022-11-12T13:06:21.227Z,102514.06
2022-11-12T13:09:01.311Z,102519.41
2022-11-12T13:12:01.450Z,102509.63
2022-11-12T13:14:35.817Z,102504.28
2022-11-12T13:17:07.107Z,102506.97
2022-11-12T13:19:44.297Z,102509.63
2022-11-12T13:22:18.467Z,102506.97
2022-11-12T13:25:05.121Z,102505.19
2022-11-12T13:27:39.587Z,102498.97
2022-11-12T13:30:10.869Z,102507.00
2022-11-12T13:32:47.982Z,102504.31
2022-11-12T13:35:21.973Z,102500.75
2022-11-12T13:38:02.533Z,102507.00
2022-11-12T13:40:50.417Z,102507.03
2022-11-12T13:43:24.757Z,102498.16
2022-11-12T13:46:15.235Z,102496.38
2022-11-12T13:48:47.977Z,102501.72
2022-11-12T13:51:34.345Z,102498.16
2022-11-12T13:54:24.810Z,102488.38
2022-11-12T13:56:56.563Z,102491.00
2022-11-12T13:59:27.875Z,102491.91
2022-11-12T14:02:03.495Z,102491.00
2022-11-12T14:04:35.018Z,102494.56
2022-11-12T14:07:17.329Z,102491.00
2022-11-12T14:09:57.791Z,102492.78
2022-11-12T14:12:45.598Z,102490.09
2022-11-12T14:15:28.141Z,102484.78
2022-11-12T14:17:59.559Z,102480.31
2022-11-12T14:20:38.108Z,102482.97
2022-11-12T14:23:24.548Z,102479.41
2022-11-12T14:25:57.118Z,102474.06
2022-11-12T14:28:30.371Z,102471.41
2022-11-12T14:31:02.607Z,102475.81
2022-11-12T14:33:33.842Z,102472.28
2022-11-12T14:36:05.323Z,102479.34
2022-11-12T14:38:38.019Z,102482.00
2022-11-12T14:41:23.790Z,102481.94
2022-11-12T14:44:11.492Z,102476.56
2022-11-12T14:46:48.331Z,102467.66
2022-11-12T14:49:28.526Z,102464.06
2022-11-12T14:52:05.489Z,102463.94
2022-11-12T14:54:40.899Z,102464.78
2022-11-12T14:57:19.002Z,102474.44
2022-11-12T14:59:50.264Z,102472.66
2022-11-12T15:02:51.271Z,102475.22
2022-11-12T15:05:23.830Z,102466.25
2022-11-12T15:07:59.425Z,102462.63
2022-11-12T15:10:31.971Z,102459.88
2022-11-12T15:13:03.146Z,102465.13
2022-11-12T15:15:35.548Z,102471.25
2022-11-12T15:18:21.590Z,102463.19
2022-11-12T15:21:11.732Z,102469.28
2022-11-12T15:23:50.132Z,102468.28
2022-11-12T15:26:35.267Z,102482.31
2022-11-12T15:29:12.528Z,102473.38
2022-11-12T15:31:48.039Z,102477.69
2022-11-12T15:34:25.425Z,102487.25
2022-11-12T15:36:57.740Z,102487.09
2022-11-12T15:39:29.345Z,102480.72
2022-11-12T15:42:02.259Z,102481.47
2022-11-12T15:44:35.015Z,102476.88
2022-11-12T15:47:09.432Z,102481.16
2022-11-12T15:49:47.309Z,102488.09
2022-11-12T15:52:18.746Z,102484.41
2022-11-12T15:54:50.221Z,102480.75
2022-11-12T15:57:23.189Z,102480.66
2022-11-12T15:59:57.364Z,102483.25
2022-11-12T16:02:29.583Z,102485.81
2022-11-12T16:05:00.780Z,102476.03
2022-11-12T16:07:32.012Z,102468.00
2022-11-12T16:10:03.357Z,102472.31
2022-11-12T16:12:34.746Z,102469.53
2022-11-12T16:15:12.351Z,102475.59
2022-11-12T16:17:43.848Z,102478.09
2022-11-12T16:20:16.193Z,102479.72
2022-11-12T16:22:48.238Z,102466.38
2022-11-12T16:25:20.261Z,102474.19
2022-11-12T16:27:55.704Z,102472.25
2022-11-12T16:30:29.411Z,102473.81
2022-11-12T16:33:01.038Z,102473.63
2022-11-12T16:35:34.452Z,102467.25
2022-11-12T16:38:12.064Z,102470.59
2022-11-12T16:40:44.039Z,102462.41
2022-11-12T16:43:15.393Z,102465.78
2022-11-12T16:45:46.595Z,102470.91
2022-11-12T16:48:19.479Z,102466.34
2022-11-12T16:50:50.850Z,102468.03
2022-11-12T16:53:22.044Z,102468.94
2022-11-12T16:55:53.247Z,102468.09
2022-11-12T16:58:24.448Z,102468.91
2022-11-12T17:00:55.685Z,102475.88
2022-11-12T17:03:27.257Z,102475.78
2022-11-12T17:05:59.237Z,102475.59
2022-11-12T17:08:33.915Z,102475.44
2022-11-12T17:11:06.038Z,102470.03
2022-11-12T17:13:38.657Z,102463.78
2022-11-12T17:16:10.691Z,102464.53
2022-11-12T17:18:42.366Z,102455.59
2022-11-12T17:21:15.436Z,102460.69
2022-11-12T17:23:46.765Z,102465.91
2022-11-12T17:26:21.518Z,102465.75
2022-11-12T17:29:00.164Z,102466.50
2022-11-12T17:31:33.595Z,102483.91
2022-11-12T17:34:08.727Z,102479.41
2022-11-12T17:36:43.505Z,102480.38
2022-11-12T17:39:15.116Z,102480.56
2022-11-12T17:41:46.339Z,102474.53
2022-11-12T17:44:18.191Z,102476.38
2022-11-12T17:46:50.310Z,102469.41
2022-11-12T17:49:21.556Z,102465.00
2022-11-12T17:51:52.840Z,102457.13
2022-11-12T17:54:24.093Z,102459.06
2022-11-12T17:56:55.298Z,102463.53
2022-11-12T17:59:26.540Z,102460.94
2022-11-12T18:01:57.727Z,102460.09
2022-11-12T18:04:30.941Z,102459.16
2022-11-12T18:07:02.691Z,102462.63
2022-11-12T18:09:33.958Z,102470.41
2022-11-12T18:12:05.367Z,102474.69
2022-11-12T18:14:38.310Z,102460.47
2022-11-12T18:17:13.839Z,102460.38
2022-11-12T18:19:48.159Z,102454.16
2022-11-12T18:22:21.014Z,102458.53
2022-11-12T18:24:52.864Z,102452.34
2022-11-12T18:27:24.097Z,102455.88
2022-11-12T18:29:55.291Z,102455.94
2022-11-12T18:32:26.528Z,102447.09
2022-11-12T18:34:57.853Z,102443.53
2022-11-12T18:37:29.080Z,102443.50
2022-11-12T18:40:00.322Z,102437.31
2022-11-12T18:42:31.614Z,102419.34
2022-11-12T18:45:02.889Z,102441.59
2022-11-12T18:47:34.100Z,102445.00
2022-11-12T18:50:08.804Z,102439.47
2022-11-12T18:52:40.746Z,102438.47
2022-11-12T18:55:12.090Z,102430.47
2022-11-12T18:57:43.318Z,102425.16
2022-11-12T19:00:15.578Z,102429.56
2022-11-12T19:02:46.880Z,102423.41
2022-11-12T19:05:20.718Z,102422.41
2022-11-12T19:07:52.056Z,102418.66
2022-11-12T19:10:23.342Z,102421.97
2022-11-12T19:12:54.670Z,102426.25
2022-11-12T19:15:27.170Z,102417.44
2022-11-12T19:17:58.490Z,102423.59
2022-11-12T19:20:30.029Z,102428.03
2022-11-12T19:23:01.235Z,102416.69
2022-11-12T19:25:34.366Z,102422.81
2022-11-12T19:28:05.614Z,102417.53
2022-11-12T19:30:36.832Z,102406.06
2022-11-12T19:33:08.071Z,102407.75
2022-11-12T19:35:40.067Z,102412.19
2022-11-12T19:38:11.281Z,102410.44
2022-11-12T19:40:42.517Z,102407.75
2022-11-12T19:43:13.777Z,102412.25
2022-11-12T19:45:45.103Z,102402.75
2022-11-12T19:48:16.314Z,102404.66
2022-11-12T19:50:47.561Z,102395.97
2022-11-12T19:53:18.968Z,102391.69
2022-11-12T19:55:50.187Z,102398.78
2022-11-12T19:58:21.412Z,102391.81
2022-11-12T20:00:52.670Z,102391.00
2022-11-12T20:03:26.314Z,102389.31
2022-11-12T20:06:07.716Z,102391.91
2022-11-12T20:08:39.201Z,102388.38
2022-11-12T20:11:10.618Z,102386.59
2022-11-12T20:13:41.880Z,102387.41
2022-11-12T20:16:13.856Z,102389.06
2022-11-12T20:18:49.813Z,102375.78
2022-11-12T20:21:24.188Z,102381.81
2022-11-12T20:23:55.576Z,102383.50
2022-11-12T20:26:26.947Z,102383.34
2022-11-12T20:28:58.157Z,102378.00
2022-11-12T20:31:29.384Z,102377.03
2022-11-12T20:34:01.898Z,102376.97
2022-11-12T20:36:33.134Z,102367.19
2022-11-12T20:39:04.668Z,102361.84
2022-11-12T20:41:35.861Z,102365.25
2022-11-12T20:44:07.069Z,102361.69
2022-11-12T20:46:38.266Z,102358.97
2022-11-12T20:49:09.469Z,102361.50
2022-11-12T20:51:40.722Z,102363.16
2022-11-12T20:54:11.934Z,102360.41
2022-11-12T20:56:44.244Z,102362.13
2022-11-12T20:59:15.486Z,102353.31
2022-11-12T21:01:46.778Z,102354.25
2022-11-12T21:04:18.028Z,102350.75
2022-11-12T21:06:50.019Z,102349.94
2022-11-12T21:09:21.290Z,102346.47
2022-11-12T21:11:52.701Z,102347.34
2022-11-12T21:14:23.981Z,102352.66
2022-11-12T21:16:55.209Z,102346.41
2022-11-12T21:19:26.425Z,102348.97
2022-11-12T21:21:57.618Z,102348.00
2022-11-12T21:24:28.822Z,102341.75
2022-11-12T21:27:00.274Z,102345.16
2022-11-12T21:29:31.561Z,102346.84
2022-11-12T21:32:02.795Z,102350.25
2022-11-12T21:34:34.067Z,102349.28
2022-11-12T21:37:05.314Z,102350.09
2022-11-12T21:39:36.779Z,102342.97
2022-11-12T21:42:07.973Z,102341.13
2022-11-12T21:44:39.181Z,102337.56
2022-11-12T21:47:10.435Z,102333.19
2022-11-12T21:49:41.662Z,102334.88
2022-11-12T21:52:12.999Z,102332.25
2022-11-12T21:54:44.216Z,102335.72
2022-11-12T21:57:18.747Z,102337.38
2022-11-12T21:59:50.282Z,102344.34
2022-11-12T22:02:21.502Z,102338.19
2022-11-12T22:04:52.750Z,102335.53
2022-11-12T22:07:24.016Z,102329.31
2022-11-12T22:09:57.070Z,102327.53
2022-11-12T22:12:28.446Z,102331.91
2022-11-12T22:14:59.666Z,102325.66
2022-11-12T22:17:32.730Z,102334.38
2022-11-12T22:20:04.122Z,102327.28
2022-11-12T22:22:35.318Z,102317.50
2022-11-12T22:25:06.748Z,102315.66
2022-11-12T22:27:37.968Z,102305.09
2022-11-12T22:30:09.533Z,102309.50
2022-11-12T22:32:40.873Z,102301.63
2022-11-12T22:35:12.119Z,102308.66
2022-11-12T22:37:43.298Z,102297.25
2022-11-12T22:40:14.715Z,102298.97
2022-11-12T22:42:45.895Z,102298.09
2022-11-12T22:45:18.048Z,102301.69
2022-11-12T22:47:49.272Z,102307.84
2022-11-12T22:50:20.543Z,102306.91
2022-11-12T22:52:51.735Z,102295.44
2022-11-12T22:55:22.979Z,102297.28
2022-11-12T22:57:54.180Z,102305.19
2022-11-12T23:00:28.967Z,102304.28
2022-11-12T23:03:00.170Z,102300.72
2022-11-12T23:05:34.429Z,102302.31
2022-11-12T23:08:05.656Z,102304.91
2022-11-12T23:10:40.386Z,102301.34
2022-11-12T23:13:14.216Z,102297.78
2022-11-12T23:15:45.932Z,102308.31
2022-11-12T23:18:17.135Z,102304.69
2022-11-12T23:20:48.534Z,102305.59
2022-11-12T23:23:19.803Z,102298.59
2022-11-12T23:25:51.091Z,102306.63
2022-11-12T23:28:22.376Z,102298.00
2022-11-12T23:30:53.579Z,102296.47
2022-11-12T23:33:24.783Z,102293.22
2022-11-12T23:36:03.633Z,102298.66
2022-11-12T23:38:34.835Z,102292.59
2022-11-12T23:41:06.266Z,102295.25
2022-11-12T23:43:37.492Z,102296.13
2022-11-12T23:46:09.218Z,102294.53
2022-11-12T23:48:40.758Z,102299.03
2022-11-12T23:51:13.350Z,102292.13
2022-11-12T23:53:44.658Z,102293.09
2022-11-12T23:56:16.706Z,102294.94
2022-11-12T23:58:47.934Z,102291.53
